sensor_id;sensor_type;location;lat;lon;timestamp;P1;durP1;ratioP1;P2;durP2;ratioP2
56824;SDS011;42705;50.326;18.772;2022-11-04T00:04:15;20.82;;;11.20;;
56824;SDS011;42705;50.326;18.772;2022-11-04T00:09:38;22.35;;;12.43;;
56824;SDS011;42705;50.326;18.772;2022-11-04T00:14:59;22.62;;;11.68;;
56824;SDS011;42705;50.326;18.772;2022-11-04T00:26:01;19.12;;;10.13;;
56824;SDS011;42705;50.326;18.772;2022-11-04T00:31:40;16.60;;;10.00;;
56824;SDS011;42705;50.326;18.772;2022-11-04T00:37:20;18.23;;;10.15;;
56824;SDS011;42705;50.326;18.772;2022-11-04T00:42:42;15.80;;;9.55;;
56824;SDS011;42705;50.326;18.772;2022-11-04T00:48:05;17.45;;;10.05;;
56824;SDS011;42705;50.326;18.772;2022-11-04T00:53:26;17.50;;;9.65;;
56824;SDS011;42705;50.326;18.772;2022-11-04T00:58:47;15.53;;;9.70;;
56824;SDS011;42705;50.326;18.772;2022-11-04T01:04:09;16.90;;;9.50;;
56824;SDS011;42705;50.326;18.772;2022-11-04T01:09:30;16.27;;;8.55;;
56824;SDS011;42705;50.326;18.772;2022-11-04T01:14:51;16.23;;;9.15;;
56824;SDS011;42705;50.326;18.772;2022-11-04T01:20:12;14.87;;;8.43;;
56824;SDS011;42705;50.326;18.772;2022-11-04T01:25:33;14.73;;;8.03;;
56824;SDS011;42705;50.326;18.772;2022-11-04T01:31:04;14.25;;;7.67;;
56824;SDS011;42705;50.326;18.772;2022-11-04T01:36:27;11.57;;;7.33;;
56824;SDS011;42705;50.326;18.772;2022-11-04T01:41:48;11.25;;;7.22;;
56824;SDS011;42705;50.326;18.772;2022-11-04T01:47:13;11.93;;;7.22;;
56824;SDS011;42705;50.326;18.772;2022-11-04T01:52:53;14.38;;;7.03;;
56824;SDS011;42705;50.326;18.772;2022-11-04T01:58:14;15.88;;;7.60;;
56824;SDS011;42705;50.326;18.772;2022-11-04T02:03:44;12.50;;;7.28;;
56824;SDS011;42705;50.326;18.772;2022-11-04T02:09:10;13.43;;;7.03;;
56824;SDS011;42705;50.326;18.772;2022-11-04T02:25:54;11.55;;;6.65;;
56824;SDS011;42705;50.326;18.772;2022-11-04T02:31:39;13.08;;;6.97;;
56824;SDS011;42705;50.326;18.772;2022-11-04T02:43:01;10.75;;;6.20;;
56824;SDS011;42705;50.326;18.772;2022-11-04T02:48:40;10.18;;;6.35;;
56824;SDS011;42705;50.326;18.772;2022-11-04T02:59:45;10.43;;;6.42;;
56824;SDS011;42705;50.326;18.772;2022-11-04T03:05:27;11.65;;;7.10;;
56824;SDS011;42705;50.326;18.772;2022-11-04T03:10:57;13.98;;;6.87;;
56824;SDS011;42705;50.326;18.772;2022-11-04T03:16:39;12.28;;;6.95;;
56824;SDS011;42705;50.326;18.772;2022-11-04T03:22:11;10.65;;;6.58;;
56824;SDS011;42705;50.326;18.772;2022-11-04T03:33:44;12.43;;;7.72;;
56824;SDS011;42705;50.326;18.772;2022-11-04T03:39:08;15.93;;;7.83;;
56824;SDS011;42705;50.326;18.772;2022-11-04T03:44:29;11.10;;;6.55;;
56824;SDS011;42705;50.326;18.772;2022-11-04T03:49:51;11.48;;;6.70;;
56824;SDS011;42705;50.326;18.772;2022-11-04T03:56:02;12.23;;;6.83;;
56824;SDS011;42705;50.326;18.772;2022-11-04T04:07:18;12.23;;;6.50;;
56824;SDS011;42705;50.326;18.772;2022-11-04T04:13:00;12.10;;;6.60;;
56824;SDS011;42705;50.326;18.772;2022-11-04T04:18:28;16.82;;;7.53;;
56824;SDS011;42705;50.326;18.772;2022-11-04T04:23:57;12.73;;;7.37;;
56824;SDS011;42705;50.326;18.772;2022-11-04T04:29:42;13.40;;;7.47;;
56824;SDS011;42705;50.326;18.772;2022-11-04T04:35:05;14.35;;;7.08;;
56824;SDS011;42705;50.326;18.772;2022-11-04T04:40:52;11.73;;;7.37;;
56824;SDS011;42705;50.326;18.772;2022-11-04T04:46:37;15.68;;;8.28;;
56824;SDS011;42705;50.326;18.772;2022-11-04T04:52:02;15.60;;;7.80;;
56824;SDS011;42705;50.326;18.772;2022-11-04T04:57:26;12.58;;;7.55;;
56824;SDS011;42705;50.326;18.772;2022-11-04T05:02:47;17.10;;;8.20;;
56824;SDS011;42705;50.326;18.772;2022-11-04T05:08:09;14.03;;;7.67;;
56824;SDS011;42705;50.326;18.772;2022-11-04T05:13:30;11.70;;;7.20;;
56824;SDS011;42705;50.326;18.772;2022-11-04T05:18:51;12.15;;;7.33;;
56824;SDS011;42705;50.326;18.772;2022-11-04T05:24:12;30.85;;;13.78;;
56824;SDS011;42705;50.326;18.772;2022-11-04T05:29:33;20.62;;;10.93;;
56824;SDS011;42705;50.326;18.772;2022-11-04T05:34:55;19.60;;;10.43;;
56824;SDS011;42705;50.326;18.772;2022-11-04T05:40:16;15.80;;;8.13;;
56824;SDS011;42705;50.326;18.772;2022-11-04T05:45:37;13.48;;;7.40;;
56824;SDS011;42705;50.326;18.772;2022-11-04T05:50:58;12.43;;;6.60;;
56824;SDS011;42705;50.326;18.772;2022-11-04T05:56:19;15.68;;;8.20;;
56824;SDS011;42705;50.326;18.772;2022-11-04T06:01:40;17.67;;;8.55;;
56824;SDS011;42705;50.326;18.772;2022-11-04T06:07:03;17.00;;;8.23;;
56824;SDS011;42705;50.326;18.772;2022-11-04T06:12:24;19.70;;;8.93;;
56824;SDS011;42705;50.326;18.772;2022-11-04T06:17:46;14.90;;;8.50;;
56824;SDS011;42705;50.326;18.772;2022-11-04T06:23:07;13.58;;;7.60;;
56824;SDS011;42705;50.326;18.772;2022-11-04T06:28:28;14.63;;;8.85;;
56824;SDS011;42705;50.326;18.772;2022-11-04T06:33:49;18.37;;;8.48;;
56824;SDS011;42705;50.326;18.772;2022-11-04T06:39:10;20.05;;;9.13;;
56824;SDS011;42705;50.326;18.772;2022-11-04T06:44:31;19.48;;;8.70;;
56824;SDS011;42705;50.326;18.772;2022-11-04T06:49:56;18.85;;;7.90;;
56824;SDS011;42705;50.326;18.772;2022-11-04T06:55:17;13.88;;;6.87;;
56824;SDS011;42705;50.326;18.772;2022-11-04T07:00:38;20.97;;;7.67;;
56824;SDS011;42705;50.326;18.772;2022-11-04T07:06:04;16.12;;;8.53;;
56824;SDS011;42705;50.326;18.772;2022-11-04T07:40:04;21.65;;;9.45;;
56824;SDS011;42705;50.326;18.772;2022-11-04T07:45:27;22.15;;;9.83;;
56824;SDS011;42705;50.326;18.772;2022-11-04T07:50:48;20.55;;;9.80;;
56824;SDS011;42705;50.326;18.772;2022-11-04T07:56:09;19.80;;;10.75;;
56824;SDS011;42705;50.326;18.772;2022-11-04T08:01:32;20.02;;;10.25;;
56824;SDS011;42705;50.326;18.772;2022-11-04T08:06:53;19.82;;;9.48;;
56824;SDS011;42705;50.326;18.772;2022-11-04T08:12:14;18.73;;;9.35;;
56824;SDS011;42705;50.326;18.772;2022-11-04T08:17:35;21.45;;;9.93;;
56824;SDS011;42705;50.326;18.772;2022-11-04T08:22:56;21.07;;;10.20;;
56824;SDS011;42705;50.326;18.772;2022-11-04T08:28:18;20.25;;;10.68;;
56824;SDS011;42705;50.326;18.772;2022-11-04T08:33:38;19.37;;;9.70;;
56824;SDS011;42705;50.326;18.772;2022-11-04T08:39:00;19.17;;;9.95;;
56824;SDS011;42705;50.326;18.772;2022-11-04T08:44:24;17.30;;;9.30;;
56824;SDS011;42705;50.326;18.772;2022-11-04T08:49:45;15.38;;;9.03;;
56824;SDS011;42705;50.326;18.772;2022-11-04T08:55:06;17.02;;;9.33;;
56824;SDS011;42705;50.326;18.772;2022-11-04T09:00:29;17.00;;;9.60;;
56824;SDS011;42705;50.326;18.772;2022-11-04T09:05:52;17.27;;;9.48;;
56824;SDS011;42705;50.326;18.772;2022-11-04T09:11:14;23.55;;;10.23;;
56824;SDS011;42705;50.326;18.772;2022-11-04T09:16:37;18.17;;;10.40;;
56824;SDS011;42705;50.326;18.772;2022-11-04T09:22:00;18.85;;;10.30;;
56824;SDS011;42705;50.326;18.772;2022-11-04T09:27:21;18.25;;;10.80;;
56824;SDS011;42705;50.326;18.772;2022-11-04T09:32:43;20.20;;;10.05;;
56824;SDS011;42705;50.326;18.772;2022-11-04T09:38:04;24.67;;;11.75;;
56824;SDS011;42705;50.326;18.772;2022-11-04T09:43:34;21.82;;;11.75;;
56824;SDS011;42705;50.326;18.772;2022-11-04T09:49:10;25.20;;;12.55;;
56824;SDS011;42705;50.326;18.772;2022-11-04T10:00:34;21.77;;;11.83;;
56824;SDS011;42705;50.326;18.772;2022-11-04T10:11:54;23.67;;;11.43;;
56824;SDS011;42705;50.326;18.772;2022-11-04T10:17:24;21.50;;;11.83;;
56824;SDS011;42705;50.326;18.772;2022-11-04T10:28:20;20.08;;;11.35;;
56824;SDS011;42705;50.326;18.772;2022-11-04T10:33:48;20.30;;;11.30;;
56824;SDS011;42705;50.326;18.772;2022-11-04T10:39:19;18.25;;;10.48;;
56824;SDS011;42705;50.326;18.772;2022-11-04T10:44:45;20.48;;;11.08;;
56824;SDS011;42705;50.326;18.772;2022-11-04T10:50:29;18.45;;;11.00;;
56824;SDS011;42705;50.326;18.772;2022-11-04T11:01:51;21.48;;;12.63;;
56824;SDS011;42705;50.326;18.772;2022-11-04T11:07:18;28.32;;;13.08;;
56824;SDS011;42705;50.326;18.772;2022-11-04T11:12:41;28.07;;;14.25;;
56824;SDS011;42705;50.326;18.772;2022-11-04T11:23:44;21.95;;;12.68;;
56824;SDS011;42705;50.326;18.772;2022-11-04T11:29:09;24.90;;;12.58;;
56824;SDS011;42705;50.326;18.772;2022-11-04T11:34:31;21.27;;;11.93;;
56824;SDS011;42705;50.326;18.772;2022-11-04T11:39:57;22.65;;;11.50;;
56824;SDS011;42705;50.326;18.772;2022-11-04T11:45:18;25.15;;;11.38;;
56824;SDS011;42705;50.326;18.772;2022-11-04T11:50:50;17.87;;;11.08;;
56824;SDS011;42705;50.326;18.772;2022-11-04T12:02:03;18.82;;;11.08;;
56824;SDS011;42705;50.326;18.772;2022-11-04T12:13:27;16.40;;;10.27;;
56824;SDS011;42705;50.326;18.772;2022-11-04T12:30:24;26.10;;;13.38;;
56824;SDS011;42705;50.326;18.772;2022-11-04T12:58:35;24.70;;;12.73;;
56824;SDS011;42705;50.326;18.772;2022-11-04T13:04:35;23.07;;;13.75;;
56824;SDS011;42705;50.326;18.772;2022-11-04T13:10:03;24.05;;;15.23;;
56824;SDS011;42705;50.326;18.772;2022-11-04T13:15:29;26.07;;;13.60;;
56824;SDS011;42705;50.326;18.772;2022-11-04T13:26:28;21.70;;;13.17;;
56824;SDS011;42705;50.326;18.772;2022-11-04T13:31:54;21.55;;;14.18;;
56824;SDS011;42705;50.326;18.772;2022-11-04T13:37:38;23.05;;;12.58;;
56824;SDS011;42705;50.326;18.772;2022-11-04T13:43:20;21.80;;;11.20;;
56824;SDS011;42705;50.326;18.772;2022-11-04T13:49:06;20.85;;;12.98;;
56824;SDS011;42705;50.326;18.772;2022-11-04T13:54:36;22.52;;;13.20;;
56824;SDS011;42705;50.326;18.772;2022-11-04T14:05:44;19.23;;;12.73;;
56824;SDS011;42705;50.326;18.772;2022-11-04T14:11:15;17.62;;;11.20;;
56824;SDS011;42705;50.326;18.772;2022-11-04T14:16:37;19.30;;;11.43;;
56824;SDS011;42705;50.326;18.772;2022-11-04T14:22:03;21.12;;;11.73;;
56824;SDS011;42705;50.326;18.772;2022-11-04T14:27:34;18.95;;;12.90;;
56824;SDS011;42705;50.326;18.772;2022-11-04T14:33:06;20.08;;;12.43;;
56824;SDS011;42705;50.326;18.772;2022-11-04T14:38:29;19.77;;;12.95;;
56824;SDS011;42705;50.326;18.772;2022-11-04T14:43:58;20.50;;;12.68;;
56824;SDS011;42705;50.326;18.772;2022-11-04T14:49:35;20.25;;;12.70;;
56824;SDS011;42705;50.326;18.772;2022-11-04T15:11:38;23.52;;;14.83;;
56824;SDS011;42705;50.326;18.772;2022-11-04T15:17:18;25.90;;;16.87;;
56824;SDS011;42705;50.326;18.772;2022-11-04T15:22:41;35.38;;;23.30;;
56824;SDS011;42705;50.326;18.772;2022-11-04T15:28:03;43.87;;;26.40;;
56824;SDS011;42705;50.326;18.772;2022-11-04T15:33:25;76.02;;;43.38;;
56824;SDS011;42705;50.326;18.772;2022-11-04T15:38:52;92.78;;;55.48;;
56824;SDS011;42705;50.326;18.772;2022-11-04T15:49:53;103.25;;;54.60;;
56824;SDS011;42705;50.326;18.772;2022-11-04T16:00:54;64.77;;;34.23;;
56824;SDS011;42705;50.326;18.772;2022-11-04T16:06:14;42.90;;;24.20;;
56824;SDS011;42705;50.326;18.772;2022-11-04T16:11:36;46.88;;;25.23;;
56824;SDS011;42705;50.326;18.772;2022-11-04T16:16:57;42.13;;;24.70;;
56824;SDS011;42705;50.326;18.772;2022-11-04T16:22:20;46.13;;;26.60;;
56824;SDS011;42705;50.326;18.772;2022-11-04T16:27:51;43.55;;;25.12;;
56824;SDS011;42705;50.326;18.772;2022-11-04T16:33:15;45.23;;;26.40;;
56824;SDS011;42705;50.326;18.772;2022-11-04T16:38:37;45.78;;;26.68;;
56824;SDS011;42705;50.326;18.772;2022-11-04T16:43:58;44.90;;;26.30;;
56824;SDS011;42705;50.326;18.772;2022-11-04T16:49:19;46.77;;;24.15;;
56824;SDS011;42705;50.326;18.772;2022-11-04T16:54:41;50.35;;;27.13;;
56824;SDS011;42705;50.326;18.772;2022-11-04T17:00:03;52.33;;;27.87;;
56824;SDS011;42705;50.326;18.772;2022-11-04T17:05:28;50.50;;;27.80;;
56824;SDS011;42705;50.326;18.772;2022-11-04T17:10:49;46.40;;;27.40;;
56824;SDS011;42705;50.326;18.772;2022-11-04T17:16:12;65.83;;;33.57;;
56824;SDS011;42705;50.326;18.772;2022-11-04T17:21:33;73.15;;;36.15;;
56824;SDS011;42705;50.326;18.772;2022-11-04T17:26:55;58.30;;;31.93;;
56824;SDS011;42705;50.326;18.772;2022-11-04T17:32:16;48.33;;;24.63;;
56824;SDS011;42705;50.326;18.772;2022-11-04T17:37:37;64.40;;;32.50;;
56824;SDS011;42705;50.326;18.772;2022-11-04T17:42:58;55.63;;;29.27;;
56824;SDS011;42705;50.326;18.772;2022-11-04T17:48:38;63.15;;;33.28;;
56824;SDS011;42705;50.326;18.772;2022-11-04T17:53:59;67.78;;;35.78;;
56824;SDS011;42705;50.326;18.772;2022-11-04T17:59:19;72.90;;;36.65;;
56824;SDS011;42705;50.326;18.772;2022-11-04T18:04:41;73.00;;;38.38;;
56824;SDS011;42705;50.326;18.772;2022-11-04T18:10:03;91.22;;;44.27;;
56824;SDS011;42705;50.326;18.772;2022-11-04T18:15:25;108.37;;;51.23;;
56824;SDS011;42705;50.326;18.772;2022-11-04T18:20:46;103.35;;;52.90;;
56824;SDS011;42705;50.326;18.772;2022-11-04T18:26:08;102.02;;;52.10;;
56824;SDS011;42705;50.326;18.772;2022-11-04T18:31:31;101.50;;;52.80;;
56824;SDS011;42705;50.326;18.772;2022-11-04T18:36:57;87.17;;;44.03;;
56824;SDS011;42705;50.326;18.772;2022-11-04T18:42:19;67.92;;;33.90;;
56824;SDS011;42705;50.326;18.772;2022-11-04T18:47:41;62.40;;;33.73;;
56824;SDS011;42705;50.326;18.772;2022-11-04T18:53:03;64.70;;;31.52;;
56824;SDS011;42705;50.326;18.772;2022-11-04T18:58:25;71.60;;;36.03;;
56824;SDS011;42705;50.326;18.772;2022-11-04T19:03:46;56.30;;;27.80;;
56824;SDS011;42705;50.326;18.772;2022-11-04T19:09:10;46.13;;;22.93;;
56824;SDS011;42705;50.326;18.772;2022-11-04T19:14:36;31.27;;;18.45;;
56824;SDS011;42705;50.326;18.772;2022-11-04T19:19:57;24.32;;;15.72;;
56824;SDS011;42705;50.326;18.772;2022-11-04T19:25:19;30.95;;;18.52;;
56824;SDS011;42705;50.326;18.772;2022-11-04T19:30:40;30.43;;;16.57;;
56824;SDS011;42705;50.326;18.772;2022-11-04T19:36:01;29.30;;;17.30;;
56824;SDS011;42705;50.326;18.772;2022-11-04T19:41:23;30.55;;;16.42;;
56824;SDS011;42705;50.326;18.772;2022-11-04T19:47:03;32.83;;;18.48;;
56824;SDS011;42705;50.326;18.772;2022-11-04T19:52:24;35.50;;;19.52;;
56824;SDS011;42705;50.326;18.772;2022-11-04T19:57:45;40.55;;;20.97;;
56824;SDS011;42705;50.326;18.772;2022-11-04T20:03:07;40.78;;;21.95;;
56824;SDS011;42705;50.326;18.772;2022-11-04T20:08:28;38.13;;;21.87;;
56824;SDS011;42705;50.326;18.772;2022-11-04T20:13:49;35.40;;;20.05;;
56824;SDS011;42705;50.326;18.772;2022-11-04T20:19:11;32.20;;;22.07;;
56824;SDS011;42705;50.326;18.772;2022-11-04T20:24:32;34.92;;;20.27;;
56824;SDS011;42705;50.326;18.772;2022-11-04T20:29:56;38.58;;;21.90;;
56824;SDS011;42705;50.326;18.772;2022-11-04T20:35:17;41.25;;;23.22;;
56824;SDS011;42705;50.326;18.772;2022-11-04T20:40:39;46.50;;;25.12;;
56824;SDS011;42705;50.326;18.772;2022-11-04T20:46:01;43.00;;;23.95;;
56824;SDS011;42705;50.326;18.772;2022-11-04T20:51:31;47.50;;;28.57;;
56824;SDS011;42705;50.326;18.772;2022-11-04T20:56:56;38.90;;;24.30;;
56824;SDS011;42705;50.326;18.772;2022-11-04T21:02:17;44.60;;;26.77;;
56824;SDS011;42705;50.326;18.772;2022-11-04T21:07:41;54.55;;;30.20;;
56824;SDS011;42705;50.326;18.772;2022-11-04T21:13:02;49.90;;;30.02;;
56824;SDS011;42705;50.326;18.772;2022-11-04T21:18:23;51.42;;;27.67;;
56824;SDS011;42705;50.326;18.772;2022-11-04T21:23:45;49.87;;;30.00;;
56824;SDS011;42705;50.326;18.772;2022-11-04T21:29:10;51.15;;;29.57;;
56824;SDS011;42705;50.326;18.772;2022-11-04T21:34:33;50.08;;;28.92;;
56824;SDS011;42705;50.326;18.772;2022-11-04T21:39:54;46.13;;;28.05;;
56824;SDS011;42705;50.326;18.772;2022-11-04T21:45:16;45.12;;;27.05;;
56824;SDS011;42705;50.326;18.772;2022-11-04T21:50:37;48.63;;;26.65;;
56824;SDS011;42705;50.326;18.772;2022-11-04T21:56:01;46.05;;;26.73;;
56824;SDS011;42705;50.326;18.772;2022-11-04T22:01:32;45.00;;;25.55;;
56824;SDS011;42705;50.326;18.772;2022-11-04T22:06:53;44.10;;;26.55;;
56824;SDS011;42705;50.326;18.772;2022-11-04T22:12:14;40.05;;;24.47;;
56824;SDS011;42705;50.326;18.772;2022-11-04T22:17:36;43.58;;;24.57;;
56824;SDS011;42705;50.326;18.772;2022-11-04T22:22:57;42.30;;;24.25;;
56824;SDS011;42705;50.326;18.772;2022-11-04T22:28:18;36.58;;;23.38;;
56824;SDS011;42705;50.326;18.772;2022-11-04T22:33:40;39.97;;;23.97;;
56824;SDS011;42705;50.326;18.772;2022-11-04T22:39:01;29.67;;;17.82;;
56824;SDS011;42705;50.326;18.772;2022-11-04T22:44:23;25.15;;;15.00;;
56824;SDS011;42705;50.326;18.772;2022-11-04T22:49:46;13.13;;;9.55;;
56824;SDS011;42705;50.326;18.772;2022-11-04T22:55:07;10.05;;;7.05;;
56824;SDS011;42705;50.326;18.772;2022-11-04T23:00:29;7.75;;;5.37;;
56824;SDS011;42705;50.326;18.772;2022-11-04T23:05:58;7.17;;;4.50;;
56824;SDS011;42705;50.326;18.772;2022-11-04T23:11:23;5.62;;;4.17;;
56824;SDS011;42705;50.326;18.772;2022-11-04T23:17:15;6.42;;;5.00;;
56824;SDS011;42705;50.326;18.772;2022-11-04T23:22:59;5.00;;;3.90;;
56824;SDS011;42705;50.326;18.772;2022-11-04T23:28:39;5.35;;;3.75;;
56824;SDS011;42705;50.326;18.772;2022-11-04T23:34:18;5.45;;;4.30;;
56824;SDS011;42705;50.326;18.772;2022-11-04T23:39:58;4.70;;;4.30;;
56824;SDS011;42705;50.326;18.772;2022-11-04T23:45:18;3.87;;;3.45;;
56824;SDS011;42705;50.326;18.772;2022-11-04T23:50:59;6.08;;;4.60;;
56824;SDS011;42705;50.326;18.772;2022-11-04T23:56:39;4.45;;;4.03;;
